Time;durP1;ratioP1;P1;durP2;ratioP2;P2;SDS_P1;SDS_P2;PMS_P1;PMS_P2;Temp;Humidity;BMP_temperature;BMP_pressure;BME280_temperature;BME280_humidity;BME280_pressure;Samples;Min_cycle;Max_cycle;Signal;HPM_P1;HPM_P2
2021/04/25 00:02:21;;;;;;;;;;;;;;;;;;4915974;29;19990;-54
2021/04/25 00:04:48;;;;;;;;;;;;;;;;;;4916452;29;20322;-51
2021/04/25 00:07:13;;;;;;;;;;;;;;;;;;4914890;29;19907;-51
2021/04/25 00:09:38;;;;;;;;;;;;;;;;;;4914842;29;19986;-52
2021/04/25 00:12:03;;;;;;;;;;;;;;;;;;4916015;29;19911;-55
2021/04/25 00:14:28;;;;;;;;;;;;;;;;;;4916041;29;19915;-56
2021/04/25 00:16:54;;;;;;;;;;;;;;;;;;4915163;29;19911;-56
2021/04/25 00:19:19;;;;;;;;;;;;;;;;;;4915595;29;19938;-57
2021/04/25 00:21:44;;;;;;;;;;;;;;;;;;4916269;29;19911;-54
2021/04/25 00:24:09;;;;;;;;;;;;;;;;;;4914638;29;19911;-58
2021/04/25 00:26:35;;;;;;;;;;;;;;;;;;4915465;29;19926;-53
2021/04/25 00:29:00;;;;;;;;;;;;;;;;;;4916754;29;19967;-52
2021/04/25 00:31:25;;;;;;;;;;;;;;;;;;4914971;29;19914;-52
2021/04/25 00:33:50;;;;;;;;;;;;;;;;;;4916470;29;20357;-54
2021/04/25 00:36:15;;;;;;;;;;;;;;;;;;4916245;29;19911;-56
2021/04/25 00:38:41;;;;;;;;;;;;;;;;;;4916602;29;20367;-53
2021/04/25 00:41:06;;;;;;;;;;;;;;;;;;4915903;29;20364;-55
2021/04/25 00:43:31;;;;;;;;;;;;;;;;;;4915028;29;20336;-56
2021/04/25 00:45:56;;;;;;;;;;;;;;;;;;4916374;29;20419;-57
2021/04/25 00:48:23;;;;;;;;;;;;;;;;;;4916196;29;20372;-55
2021/04/25 00:50:48;;;;;;;;;;;;;;;;;;4914618;29;20010;-55
2021/04/25 00:53:13;;;;;;;;;;;;;;;;;;4914767;29;19949;-56
2021/04/25 00:55:39;;;;;;;;;;;;;;;;;;4916043;29;19911;-56
2021/04/25 00:58:04;;;;;;;;;;;;;;;;;;4915639;29;19919;-55
2021/04/25 01:00:29;;;;;;;;;;;;;;;;;;4914794;29;19978;-55
2021/04/25 01:02:54;;;;;;;;;;;;;;;;;;4916044;29;19911;-58
2021/04/25 01:05:20;;;;;;;;;;;;;;;;;;4915831;29;19921;-55
2021/04/25 01:07:45;;;;;;;;;;;;;;;;;;4916249;29;19934;-55
2021/04/25 01:10:10;;;;;;;;;;;;;;;;;;4914429;29;19927;-54
2021/04/25 01:12:35;;;;;;;;;;;;;;;;;;4916137;29;19911;-55
2021/04/25 01:15:01;;;;;;;;;;;;;;;;;;4915811;29;20402;-55
2021/04/25 01:17:26;;;;;;;;;;;;;;;;;;4915914;29;19954;-54
2021/04/25 01:19:52;;;;;;;;;;;;;;;;;;4916285;29;19915;-59
2021/04/25 01:22:17;;;;;;;;;;;;;;;;;;4915985;29;19918;-55
2021/04/25 01:24:42;;;;;;;;;;;;;;;;;;4915823;29;20007;-56
2021/04/25 01:27:07;;;;;;;;;;;;;;;;;;4915541;29;19917;-55
2021/04/25 01:29:32;;;;;;;;;;;;;;;;;;4919181;29;19966;-54
2021/04/25 01:31:58;;;;;;;;;;;;;;;;;;4919389;29;19946;-55
2021/04/25 01:34:23;;;;;;;;;;;;;;;;;;4919215;29;19911;-54
2021/04/25 01:36:49;;;;;;;;;;;;;;;;;;4919731;29;19929;-55
2021/04/25 01:39:14;;;;;;;;;;;;;;;;;;4918902;29;19977;-57
2021/04/25 01:41:39;;;;;;;;;;;;;;;;;;4919108;29;20375;-56
2021/04/25 01:44:05;;;;;;;;;;;;;;;;;;4902259;29;20002;-57
2021/04/25 01:46:30;;;;;;;;;;;;;;;;;;4917843;29;19953;-54
2021/04/25 01:48:55;;;;;;;;;;;;;;;;;;4917883;29;20245;-56
2021/04/25 01:51:20;;;;;;;;;;;;;;;;;;4901984;29;19942;-56
2021/04/25 01:53:45;;;;;;;;;;;;;;;;;;4919155;29;19973;-56
2021/04/25 01:56:11;;;;;;;;;;;;;;;;;;4918836;29;20280;-55
2021/04/25 01:58:36;;;;;;;;;;;;;;;;;;4918977;29;19911;-56
2021/04/25 02:01:01;;;;;;;;;;;;;;;;;;4917808;29;19930;-56
2021/04/25 02:03:26;;;;;;;;;;;;;;;;;;4918701;29;19922;-52
2021/04/25 02:05:52;;;;;;;;;;;;;;;;;;4917685;29;19921;-56
2021/04/25 02:08:17;;;;;;;;;;;;;;;;;;4918697;29;19911;-54
2021/04/25 02:10:42;;;;;;;;;;;;;;;;;;4918480;29;19919;-55
2021/04/25 02:13:07;;;;;;;;;;;;;;;;;;4917542;29;19907;-56
2021/04/25 02:15:33;;;;;;;;;;;;;;;;;;4918207;29;19953;-55
2021/04/25 02:17:58;;;;;;;;;;;;;;;;;;4917362;29;19911;-56
2021/04/25 02:20:23;;;;;;;;;;;;;;;;;;4917176;29;19963;-56
2021/04/25 02:22:48;;;;;;;;;;;;;;;;;;4917261;29;20015;-56
2021/04/25 02:25:14;;;;;;;;;;;;;;;;;;4918445;29;19918;-55
2021/04/25 02:27:39;;;;;;;;;;;;;;;;;;4918997;29;19962;-55
2021/04/25 02:30:04;;;;;;;;;;;;;;;;;;4917073;29;19923;-55
2021/04/25 02:32:29;;;;;;;;;;;;;;;;;;4918641;29;20005;-55
2021/04/25 02:34:55;;;;;;;;;;;;;;;;;;4918073;29;19915;-53
2021/04/25 02:37:20;;;;;;;;;;;;;;;;;;4916929;29;19911;-54
2021/04/25 02:39:45;;;;;;;;;;;;;;;;;;4917499;29;20227;-53
2021/04/25 02:42:10;;;;;;;;;;;;;;;;;;4916787;29;19907;-55
2021/04/25 02:44:36;;;;;;;;;;;;;;;;;;4917765;29;19940;-52
2021/04/25 02:47:01;;;;;;;;;;;;;;;;;;4918252;29;20248;-53
2021/04/25 02:49:26;;;;;;;;;;;;;;;;;;4908719;29;19927;-55
2021/04/25 02:51:52;;;;;;;;;;;;;;;;;;4907608;29;19923;-58
2021/04/25 02:54:17;;;;;;;;;;;;;;;;;;4901071;29;20309;-54
2021/04/25 02:56:42;;;;;;;;;;;;;;;;;;4899237;29;19912;-55
2021/04/25 02:59:07;;;;;;;;;;;;;;;;;;4897752;29;19969;-57
2021/04/25 03:01:33;;;;;;;;;;;;;;;;;;4897972;29;19912;-56
2021/04/25 03:03:58;;;;;;;;;;;;;;;;;;4882364;29;19911;-53
2021/04/25 03:06:23;;;;;;;;;;;;;;;;;;4898665;29;20380;-55
2021/04/25 03:08:48;;;;;;;;;;;;;;;;;;4899079;29;19911;-57
2021/04/25 03:11:14;;;;;;;;;;;;;;;;;;4897490;29;19919;-58
2021/04/25 03:13:39;;;;;;;;;;;;;;;;;;4898721;29;19939;-55
2021/04/25 03:16:04;;;;;;;;;;;;;;;;;;4898917;29;19911;-56
2021/04/25 03:18:29;;;;;;;;;;;;;;;;;;4897404;29;19911;-54
2021/04/25 03:20:55;;;;;;;;;;;;;;;;;;4898520;29;19991;-56
2021/04/25 03:23:20;;;;;;;;;;;;;;;;;;4898686;29;19919;-55
2021/04/25 03:25:45;;;;;;;;;;;;;;;;;;4898542;29;20343;-55
2021/04/25 03:28:10;;;;;;;;;;;;;;;;;;4898703;29;20425;-55
2021/04/25 03:30:35;;;;;;;;;;;;;;;;;;4898460;29;20411;-55
2021/04/25 03:33:01;;;;;;;;;;;;;;;;;;4899248;29;20328;-54
2021/04/25 03:35:26;;;;;;;;;;;;;;;;;;4898922;29;20415;-54
2021/04/25 03:37:51;;;;;;;;;;;;;;;;;;4899397;29;19911;-55
2021/04/25 03:40:16;;;;;;;;;;;;;;;;;;4899034;29;19911;-55
2021/04/25 03:42:42;;;;;;;;;;;;;;;;;;4898153;29;19915;-55
2021/04/25 03:45:07;;;;;;;;;;;;;;;;;;4898526;29;20018;-56
2021/04/25 03:47:32;;;;;;;;;;;;;;;;;;4898627;29;19915;-54
2021/04/25 03:49:57;;;;;;;;;;;;;;;;;;4898044;29;19919;-56
2021/04/25 03:52:22;;;;;;;;;;;;;;;;;;4896739;29;19911;-54
2021/04/25 03:54:48;;;;;;;;;;;;;;;;;;4897930;29;19911;-55
2021/04/25 03:57:13;;;;;;;;;;;;;;;;;;4898135;29;20005;-54
2021/04/25 03:59:38;;;;;;;;;;;;;;;;;;4896315;29;19997;-54
2021/04/25 04:02:03;;;;;;;;;;;;;;;;;;4906610;29;19907;-54
2021/04/25 04:04:29;;;;;;;;;;;;;;;;;;4915257;29;19927;-56
2021/04/25 04:06:54;;;;;;;;;;;;;;;;;;4916897;29;19918;-55
2021/04/25 04:09:19;;;;;;;;;;;;;;;;;;4916129;29;19918;-55
2021/04/25 04:11:44;;;;;;;;;;;;;;;;;;4916580;29;19922;-56
2021/04/25 04:14:09;;;;;;;;;;;;;;;;;;4916747;29;19917;-55
2021/04/25 04:16:35;;;;;;;;;;;;;;;;;;4916368;29;20263;-57
2021/04/25 04:19:00;;;;;;;;;;;;;;;;;;4916296;29;20292;-55
2021/04/25 04:21:25;;;;;;;;;;;;;;;;;;4915371;29;20062;-55
2021/04/25 04:23:50;;;;;;;;;;;;;;;;;;4916202;29;19915;-57
2021/04/25 04:26:16;;;;;;;;;;;;;;;;;;4916686;29;19911;-56
2021/04/25 04:28:41;;;;;;;;;;;;;;;;;;4915116;29;20368;-56
2021/04/25 04:31:06;;;;;;;;;;;;;;;;;;4916215;29;19926;-57
2021/04/25 04:33:31;;;;;;;;;;;;;;;;;;4916331;29;19914;-55
2021/04/25 04:35:57;;;;;;;;;;;;;;;;;;4916696;29;19911;-56
2021/04/25 04:38:22;;;;;;;;;;;;;;;;;;4916212;29;20298;-56
2021/04/25 04:40:47;;;;;;;;;;;;;;;;;;4916257;29;19917;-55
2021/04/25 04:43:12;;;;;;;;;;;;;;;;;;4915085;29;19911;-56
2021/04/25 04:45:37;;;;;;;;;;;;;;;;;;4916216;29;20352;-54
2021/04/25 04:48:03;;;;;;;;;;;;;;;;;;4916831;29;20278;-57
2021/04/25 04:50:28;;;;;;;;;;;;;;;;;;4916000;29;20364;-56
2021/04/25 04:52:53;;;;;;;;;;;;;;;;;;4915901;29;20026;-57
2021/04/25 04:55:18;;;;;;;;;;;;;;;;;;4916339;29;19969;-55
2021/04/25 04:57:44;;;;;;;;;;;;;;;;;;4914586;29;20371;-56
2021/04/25 05:00:09;;;;;;;;;;;;;;;;;;4915919;29;19919;-54
2021/04/25 05:02:34;;;;;;;;;;;;;;;;;;4915550;29;19966;-53
2021/04/25 05:04:59;;;;;;;;;;;;;;;;;;4920080;29;19912;-55
2021/04/25 05:07:25;;;;;;;;;;;;;;;;;;4919703;29;20415;-56
2021/04/25 05:09:50;;;;;;;;;;;;;;;;;;4919341;29;19919;-56
2021/04/25 05:12:15;;;;;;;;;;;;;;;;;;4918687;29;19985;-57
2021/04/25 05:14:40;;;;;;;;;;;;;;;;;;4919876;29;19915;-56
2021/04/25 05:17:06;;;;;;;;;;;;;;;;;;4920031;29;19915;-56
2021/04/25 05:19:31;;;;;;;;;;;;;;;;;;4919431;29;19918;-56
2021/04/25 05:21:56;;;;;;;;;;;;;;;;;;4918095;29;19910;-56
2021/04/25 05:24:22;;;;;;;;;;;;;;;;;;4919803;29;19958;-57
2021/04/25 05:26:47;;;;;;;;;;;;;;;;;;4919187;29;19918;-55
2021/04/25 05:29:12;;;;;;;;;;;;;;;;;;4919382;29;19911;-55
2021/04/25 05:31:38;;;;;;;;;;;;;;;;;;4919403;29;19911;-55
2021/04/25 05:34:03;;;;;;;;;;;;;;;;;;4919568;29;20017;-55
2021/04/25 05:36:28;;;;;;;;;;;;;;;;;;4919482;29;20336;-56
2021/04/25 05:38:53;;;;;;;;;;;;;;;;;;4917908;29;20366;-55
2021/04/25 05:41:19;;;;;;;;;;;;;;;;;;4918202;29;20061;-57
2021/04/25 05:43:45;;;;;;;;;;;;;;;;;;4919112;29;19977;-54
2021/04/25 05:46:11;;;;;;;;;;;;;;;;;;4919341;29;19966;-56
2021/04/25 05:48:36;;;;;;;;;;;;;;;;;;4918877;29;20372;-56
2021/04/25 05:51:01;;;;;;;;;;;;;;;;;;4918772;29;20249;-54
2021/04/25 05:53:26;;;;;;;;;;;;;;;;;;4918635;29;20376;-55
2021/04/25 05:55:51;;;;;;;;;;;;;;;;;;4918528;29;19914;-55
2021/04/25 05:58:17;;;;;;;;;;;;;;;;;;4919142;29;19911;-55
2021/04/25 06:00:42;;;;;;;;;;;;;;;;;;4918352;29;19978;-55
2021/04/25 06:03:07;;;;;;;;;;;;;;;;;;4918986;29;19911;-55
2021/04/25 06:05:32;;;;;;;;;;;;;;;;;;4918879;29;19938;-57
2021/04/25 06:07:57;;;;;;;;;;;;;;;;;;4901477;29;20311;-55
2021/04/25 06:10:23;;;;;;;;;;;;;;;;;;4918611;29;19959;-56
2021/04/25 06:12:50;;;;;;;;;;;;;;;;;;4918196;29;19922;-53
2021/04/25 06:15:16;;;;;;;;;;;;;;;;;;4915848;29;20352;-56
2021/04/25 06:17:41;;;;;;;;;;;;;;;;;;4917341;29;19911;-57
2021/04/25 06:20:06;;;;;;;;;;;;;;;;;;4918583;29;20353;-56
2021/04/25 06:22:32;;;;;;;;;;;;;;;;;;4918640;29;19915;-55
2021/04/25 06:24:57;;;;;;;;;;;;;;;;;;4918024;29;19911;-53
2021/04/25 06:27:22;;;;;;;;;;;;;;;;;;4917273;29;19914;-54
2021/04/25 06:29:47;;;;;;;;;;;;;;;;;;4918172;29;20017;-55
2021/04/25 06:32:12;;;;;;;;;;;;;;;;;;4918448;29;19911;-57
2021/04/25 06:34:38;;;;;;;;;;;;;;;;;;4917033;29;20391;-56
2021/04/25 06:37:03;;;;;;;;;;;;;;;;;;4916744;29;20014;-56
2021/04/25 06:39:28;;;;;;;;;;;;;;;;;;4916751;29;19950;-55
2021/04/25 06:41:53;;;;;;;;;;;;;;;;;;4916647;29;20359;-54
2021/04/25 06:44:18;;;;;;;;;;;;;;;;;;4917966;29;20427;-55
2021/04/25 06:46:44;;;;;;;;;;;;;;;;;;4916646;29;20327;-56
2021/04/25 06:49:09;;;;;;;;;;;;;;;;;;4918123;29;19907;-56
2021/04/25 06:51:34;;;;;;;;;;;;;;;;;;4918012;29;20296;-56
2021/04/25 06:53:59;;;;;;;;;;;;;;;;;;4917428;29;20435;-55
2021/04/25 06:56:25;;;;;;;;;;;;;;;;;;4917745;29;19983;-55
2021/04/25 06:58:50;;;;;;;;;;;;;;;;;;4917868;29;20349;-55
2021/04/25 07:01:16;;;;;;;;;;;;;;;;;;4900310;29;19923;-58
2021/04/25 07:03:41;;;;;;;;;;;;;;;;;;4917941;29;19991;-54
2021/04/25 07:06:07;;;;;;;;;;;;;;;;;;4917169;29;19911;-55
2021/04/25 07:08:32;;;;;;;;;;;;;;;;;;4917790;29;19922;-56
2021/04/25 07:10:57;;;;;;;;;;;;;;;;;;4917418;29;19963;-55
2021/04/25 07:13:22;;;;;;;;;;;;;;;;;;4918174;29;20269;-55
2021/04/25 07:15:47;;;;;;;;;;;;;;;;;;4917481;29;19918;-55
2021/04/25 07:18:13;;;;;;;;;;;;;;;;;;4917546;29;19917;-57
2021/04/25 07:20:38;;;;;;;;;;;;;;;;;;4917551;29;20301;-56
2021/04/25 07:23:04;;;;;;;;;;;;;;;;;;4917391;29;20293;-56
2021/04/25 07:25:29;;;;;;;;;;;;;;;;;;4917101;29;20010;-57
2021/04/25 07:27:54;;;;;;;;;;;;;;;;;;4917492;29;20363;-56
2021/04/25 07:30:19;;;;;;;;;;;;;;;;;;4915844;29;20327;-56
2021/04/25 07:32:45;;;;;;;;;;;;;;;;;;4915960;29;20376;-56
2021/04/25 07:35:10;;;;;;;;;;;;;;;;;;4915794;29;20356;-56
2021/04/25 07:37:35;;;;;;;;;;;;;;;;;;4915702;29;19911;-57
2021/04/25 07:40:00;;;;;;;;;;;;;;;;;;4917052;29;19918;-56
2021/04/25 07:42:26;;;;;;;;;;;;;;;;;;4915971;29;20403;-55
2021/04/25 07:44:51;;;;;;;;;;;;;;;;;;4916971;29;19963;-57
2021/04/25 07:47:16;;;;;;;;;;;;;;;;;;4915557;29;19954;-56
2021/04/25 07:49:41;;;;;;;;;;;;;;;;;;4916581;29;19919;-55
2021/04/25 07:52:07;;;;;;;;;;;;;;;;;;4915103;29;20009;-55
2021/04/25 07:54:32;;;;;;;;;;;;;;;;;;4914976;29;19915;-55
2021/04/25 07:56:57;;;;;;;;;;;;;;;;;;4916317;29;19915;-58
2021/04/25 07:59:22;;;;;;;;;;;;;;;;;;4916158;29;19911;-55
2021/04/25 08:01:48;;;;;;;;;;;;;;;;;;4914986;29;20005;-56
2021/04/25 08:04:13;;;;;;;;;;;;;;;;;;4914742;29;20001;-55
2021/04/25 08:06:38;;;;;;;;;;;;;;;;;;4915478;29;20311;-56
2021/04/25 08:09:03;;;;;;;;;;;;;;;;;;4915118;29;19911;-56
2021/04/25 08:11:28;;;;;;;;;;;;;;;;;;4915440;29;20412;-54
2021/04/25 08:13:54;;;;;;;;;;;;;;;;;;4916165;29;20364;-56
2021/04/25 08:16:19;;;;;;;;;;;;;;;;;;4916660;29;20301;-54
2021/04/25 08:18:44;;;;;;;;;;;;;;;;;;4915451;29;20006;-56
2021/04/25 08:21:09;;;;;;;;;;;;;;;;;;4915217;29;19911;-56
2021/04/25 08:23:35;;;;;;;;;;;;;;;;;;4916677;29;20019;-55
2021/04/25 08:26:01;;;;;;;;;;;;;;;;;;4916514;29;20359;-55
2021/04/25 08:28:26;;;;;;;;;;;;;;;;;;4916421;29;20376;-56
2021/04/25 08:30:51;;;;;;;;;;;;;;;;;;4916509;29;19930;-56
2021/04/25 08:33:16;;;;;;;;;;;;;;;;;;4917390;29;19965;-55
2021/04/25 08:35:41;;;;;;;;;;;;;;;;;;4916615;29;19914;-54
2021/04/25 08:38:07;;;;;;;;;;;;;;;;;;4915577;29;19922;-57
2021/04/25 08:40:32;;;;;;;;;;;;;;;;;;4916155;29;19915;-56
2021/04/25 08:42:57;;;;;;;;;;;;;;;;;;4915031;29;20384;-56
2021/04/25 08:45:23;;;;;;;;;;;;;;;;;;4916268;29;20332;-55
2021/04/25 08:47:48;;;;;;;;;;;;;;;;;;4916176;29;19962;-55
2021/04/25 08:50:13;;;;;;;;;;;;;;;;;;4914896;29;19919;-56
2021/04/25 08:52:39;;;;;;;;;;;;;;;;;;4915918;29;19959;-56
2021/04/25 08:55:04;;;;;;;;;;;;;;;;;;4916182;29;19911;-56
2021/04/25 08:57:29;;;;;;;;;;;;;;;;;;4916358;29;19911;-55
2021/04/25 08:59:54;;;;;;;;;;;;;;;;;;4915956;29;19919;-54
2021/04/25 09:02:20;;;;;;;;;;;;;;;;;;4916218;29;19934;-55
2021/04/25 09:04:45;;;;;;;;;;;;;;;;;;4916290;29;19997;-55
2021/04/25 09:07:11;;;;;;;;;;;;;;;;;;4916014;29;19911;-56
2021/04/25 09:09:36;;;;;;;;;;;;;;;;;;4915821;29;20484;-57
2021/04/25 09:12:01;;;;;;;;;;;;;;;;;;4909406;29;19916;-58
2021/04/25 09:14:27;;;;;;;;;;;;;;;;;;4920641;29;19921;-55
2021/04/25 09:16:53;;;;;;;;;;;;;;;;;;4920529;29;19962;-56
2021/04/25 09:19:18;;;;;;;;;;;;;;;;;;4901678;29;19911;-57
2021/04/25 09:21:43;;;;;;;;;;;;;;;;;;4905496;29;19943;-57
2021/04/25 09:24:09;;;;;;;;;;;;;;;;;;4914432;29;19983;-56
2021/04/25 09:26:34;;;;;;;;;;;;;;;;;;4915489;29;20378;-57
2021/04/25 09:28:59;;;;;;;;;;;;;;;;;;4914468;29;19958;-58
2021/04/25 09:31:25;;;;;;;;;;;;;;;;;;4915417;29;19925;-56
2021/04/25 09:33:50;;;;;;;;;;;;;;;;;;4915880;29;19911;-57
2021/04/25 09:36:20;;;;;;;;;;;;;;;;;;4915270;29;19966;-57
2021/04/25 09:38:45;;;;;;;;;;;;;;;;;;4914414;29;19911;-57
2021/04/25 09:41:10;;;;;;;;;;;;;;;;;;4913398;29;19911;-57
2021/04/25 09:43:36;;;;;;;;;;;;;;;;;;4915853;29;19911;-57
2021/04/25 09:46:01;;;;;;;;;;;;;;;;;;4929836;29;19919;-58
2021/04/25 09:48:26;;;;;;;;;;;;;;;;;;4915717;29;19911;-58
2021/04/25 09:50:51;;;;;;;;;;;;;;;;;;4917990;29;20035;-58
2021/04/25 09:53:17;;;;;;;;;;;;;;;;;;4918700;29;20244;-57
2021/04/25 09:55:42;;;;;;;;;;;;;;;;;;4918219;29;19963;-58
2021/04/25 09:58:09;;;;;;;;;;;;;;;;;;4918057;29;19939;-57
2021/04/25 10:00:34;;;;;;;;;;;;;;;;;;4918447;29;20374;-57
2021/04/25 10:03:00;;;;;;;;;;;;;;;;;;4919201;29;19997;-57
2021/04/25 10:05:25;;;;;;;;;;;;;;;;;;4918706;29;20378;-57
2021/04/25 10:07:50;;;;;;;;;;;;;;;;;;4919122;29;20316;-58
2021/04/25 10:10:15;;;;;;;;;;;;;;;;;;4918500;29;19930;-59
2021/04/25 10:12:41;;;;;;;;;;;;;;;;;;4918968;29;20002;-58
2021/04/25 10:15:06;;;;;;;;;;;;;;;;;;4918705;29;19918;-57
2021/04/25 10:17:31;;;;;;;;;;;;;;;;;;4918161;29;19922;-58
2021/04/25 10:19:56;;;;;;;;;;;;;;;;;;4919114;29;19911;-58
2021/04/25 10:22:22;;;;;;;;;;;;;;;;;;4933163;29;19998;-56
2021/04/25 10:24:47;;;;;;;;;;;;;;;;;;4917047;29;20279;-58
2021/04/25 10:27:12;;;;;;;;;;;;;;;;;;4918871;29;19966;-57
2021/04/25 10:29:37;;;;;;;;;;;;;;;;;;4917367;29;20021;-58
2021/04/25 10:32:03;;;;;;;;;;;;;;;;;;4918161;29;20009;-58
2021/04/25 10:34:28;;;;;;;;;;;;;;;;;;4918507;29;19962;-56
2021/04/25 10:36:57;;;;;;;;;;;;;;;;;;4933131;29;19911;-58
2021/04/25 10:39:22;;;;;;;;;;;;;;;;;;4918006;29;19998;-58
2021/04/25 10:41:48;;;;;;;;;;;;;;;;;;4932556;29;20038;-57
2021/04/25 10:44:13;;;;;;;;;;;;;;;;;;4918166;29;20352;-56
2021/04/25 10:46:38;;;;;;;;;;;;;;;;;;4917608;29;19982;-58
2021/04/25 10:49:03;;;;;;;;;;;;;;;;;;4918286;29;19959;-56
2021/04/25 10:51:29;;;;;;;;;;;;;;;;;;4917842;29;19966;-58
2021/04/25 10:53:54;;;;;;;;;;;;;;;;;;4918017;29;19911;-55
2021/04/25 10:56:20;;;;;;;;;;;;;;;;;;4917429;29;19973;-57
2021/04/25 10:58:46;;;;;;;;;;;;;;;;;;4918087;29;19911;-57
2021/04/25 11:01:11;;;;;;;;;;;;;;;;;;4915085;29;19925;-58
2021/04/25 11:03:36;;;;;;;;;;;;;;;;;;4918071;29;19994;-56
2021/04/25 11:06:01;;;;;;;;;;;;;;;;;;4917856;29;19911;-56
2021/04/25 11:08:26;;;;;;;;;;;;;;;;;;4918036;29;19911;-57
2021/04/25 11:10:52;;;;;;;;;;;;;;;;;;4917204;29;20001;-56
2021/04/25 11:13:17;;;;;;;;;;;;;;;;;;4917464;29;19967;-55
2021/04/25 11:15:42;;;;;;;;;;;;;;;;;;4917188;29;20301;-56
2021/04/25 11:18:07;;;;;;;;;;;;;;;;;;4917504;29;19911;-56
2021/04/25 11:20:33;;;;;;;;;;;;;;;;;;4917538;29;19915;-56
2021/04/25 11:22:58;;;;;;;;;;;;;;;;;;4915124;29;19918;-56
2021/04/25 11:25:23;;;;;;;;;;;;;;;;;;4915903;29;19907;-57
2021/04/25 11:27:48;;;;;;;;;;;;;;;;;;4917701;29;19968;-56
2021/04/25 11:30:14;;;;;;;;;;;;;;;;;;4917052;29;19937;-55
2021/04/25 11:32:39;;;;;;;;;;;;;;;;;;4931906;29;20241;-54
2021/04/25 11:35:05;;;;;;;;;;;;;;;;;;4916396;29;19911;-54
2021/04/25 11:37:30;;;;;;;;;;;;;;;;;;4914756;29;20062;-57
2021/04/25 11:39:55;;;;;;;;;;;;;;;;;;4915571;29;20372;-57
2021/04/25 11:42:20;;;;;;;;;;;;;;;;;;4916984;29;20372;-58
2021/04/25 11:44:46;;;;;;;;;;;;;;;;;;4916139;29;20005;-58
2021/04/25 11:47:11;;;;;;;;;;;;;;;;;;4917114;29;20368;-57
2021/04/25 11:49:37;;;;;;;;;;;;;;;;;;4917108;29;19907;-57
2021/04/25 11:52:02;;;;;;;;;;;;;;;;;;4916702;29;19970;-57
2021/04/25 11:54:30;;;;;;;;;;;;;;;;;;4915245;29;19915;-57
2021/04/25 11:56:56;;;;;;;;;;;;;;;;;;4914411;29;19911;-56
2021/04/25 11:59:21;;;;;;;;;;;;;;;;;;4911757;29;20455;-57
2021/04/25 12:01:47;;;;;;;;;;;;;;;;;;4911430;29;19986;-57
2021/04/25 12:04:13;;;;;;;;;;;;;;;;;;4916201;29;19915;-54
2021/04/25 12:06:39;;;;;;;;;;;;;;;;;;4914231;29;19926;-55
2021/04/25 12:09:04;;;;;;;;;;;;;;;;;;4913465;29;19911;-56
2021/04/25 12:11:29;;;;;;;;;;;;;;;;;;4916227;29;19963;-56
2021/04/25 12:13:55;;;;;;;;;;;;;;;;;;4915348;29;19910;-57
2021/04/25 12:16:20;;;;;;;;;;;;;;;;;;4916778;29;19950;-58
2021/04/25 12:18:45;;;;;;;;;;;;;;;;;;4917145;29;20355;-56
2021/04/25 12:21:11;;;;;;;;;;;;;;;;;;4915486;29;19914;-57
2021/04/25 12:23:36;;;;;;;;;;;;;;;;;;4914724;29;19962;-56
2021/04/25 12:26:01;;;;;;;;;;;;;;;;;;4916768;29;19914;-56
2021/04/25 12:28:27;;;;;;;;;;;;;;;;;;4916523;29;20051;-56
2021/04/25 12:30:52;;;;;;;;;;;;;;;;;;4915331;29;20371;-58
2021/04/25 12:33:18;;;;;;;;;;;;;;;;;;4913985;29;20022;-57
2021/04/25 12:35:43;;;;;;;;;;;;;;;;;;4915773;29;19926;-56
2021/04/25 12:38:09;;;;;;;;;;;;;;;;;;4915993;29;19914;-56
2021/04/25 12:40:35;;;;;;;;;;;;;;;;;;4914677;29;19911;-56
2021/04/25 12:43:01;;;;;;;;;;;;;;;;;;4915330;29;19915;-56
2021/04/25 12:45:26;;;;;;;;;;;;;;;;;;4915961;29;19934;-56
2021/04/25 12:47:51;;;;;;;;;;;;;;;;;;4914885;29;19965;-57
2021/04/25 12:50:16;;;;;;;;;;;;;;;;;;4915129;29;19919;-57
2021/04/25 12:52:42;;;;;;;;;;;;;;;;;;4914906;29;19931;-58
2021/04/25 12:55:07;;;;;;;;;;;;;;;;;;4916382;29;20348;-59
2021/04/25 12:57:32;;;;;;;;;;;;;;;;;;4898544;29;19925;-56
2021/04/25 12:59:57;;;;;;;;;;;;;;;;;;4916331;29;20423;-57
2021/04/25 13:02:23;;;;;;;;;;;;;;;;;;4915688;29;19915;-57
2021/04/25 13:04:49;;;;;;;;;;;;;;;;;;4915771;29;20002;-57
2021/04/25 13:07:14;;;;;;;;;;;;;;;;;;4897724;29;19911;-57
2021/04/25 13:09:40;;;;;;;;;;;;;;;;;;4913621;29;19915;-57
2021/04/25 13:12:05;;;;;;;;;;;;;;;;;;4914897;29;19907;-58
2021/04/25 13:14:30;;;;;;;;;;;;;;;;;;4914767;29;19911;-57
2021/04/25 13:16:55;;;;;;;;;;;;;;;;;;4914879;29;19918;-58
2021/04/25 13:19:21;;;;;;;;;;;;;;;;;;4914849;29;19922;-58
2021/04/25 13:21:46;;;;;;;;;;;;;;;;;;4914576;29;19919;-57
2021/04/25 13:24:11;;;;;;;;;;;;;;;;;;4916220;29;19914;-56
2021/04/25 13:26:36;;;;;;;;;;;;;;;;;;4918103;29;19918;-57
2021/04/25 13:29:02;;;;;;;;;;;;;;;;;;4918296;29;20017;-57
2021/04/25 13:31:27;;;;;;;;;;;;;;;;;;4916348;29;20291;-57
2021/04/25 13:33:52;;;;;;;;;;;;;;;;;;4917570;29;19922;-57
2021/04/25 13:36:17;;;;;;;;;;;;;;;;;;4918233;29;20394;-56
2021/04/25 13:38:43;;;;;;;;;;;;;;;;;;4917530;29;20360;-56
2021/04/25 13:41:08;;;;;;;;;;;;;;;;;;4917988;29;19921;-58
2021/04/25 13:43:33;;;;;;;;;;;;;;;;;;4917768;29;19911;-56
2021/04/25 13:45:59;;;;;;;;;;;;;;;;;;4918079;29;19926;-56
2021/04/25 13:48:24;;;;;;;;;;;;;;;;;;4916177;29;20005;-57
2021/04/25 13:50:50;;;;;;;;;;;;;;;;;;4918019;29;19919;-56
2021/04/25 13:53:16;;;;;;;;;;;;;;;;;;4900495;29;20002;-55
2021/04/25 13:55:41;;;;;;;;;;;;;;;;;;4917402;29;19918;-56
2021/04/25 13:58:06;;;;;;;;;;;;;;;;;;4915365;29;19922;-57
2021/04/25 14:00:31;;;;;;;;;;;;;;;;;;4915794;29;19957;-57
2021/04/25 14:02:57;;;;;;;;;;;;;;;;;;4917477;29;19948;-57
2021/04/25 14:05:22;;;;;;;;;;;;;;;;;;4917295;29;20026;-57
2021/04/25 14:07:47;;;;;;;;;;;;;;;;;;4917134;29;19911;-57
2021/04/25 14:10:12;;;;;;;;;;;;;;;;;;4918363;29;19923;-57
2021/04/25 14:12:37;;;;;;;;;;;;;;;;;;4918451;29;19907;-57
2021/04/25 14:15:03;;;;;;;;;;;;;;;;;;4918822;29;19947;-56
2021/04/25 14:17:29;;;;;;;;;;;;;;;;;;4918655;29;19918;-56
2021/04/25 14:19:54;;;;;;;;;;;;;;;;;;4917334;29;19911;-58
2021/04/25 14:22:20;;;;;;;;;;;;;;;;;;4918851;29;19911;-57
2021/04/25 14:24:48;;;;;;;;;;;;;;;;;;4918519;29;20359;-56
2021/04/25 14:27:13;;;;;;;;;;;;;;;;;;4918745;29;20340;-57
2021/04/25 14:29:38;;;;;;;;;;;;;;;;;;4918201;29;19912;-56
2021/04/25 14:32:03;;;;;;;;;;;;;;;;;;4918282;29;19911;-56
2021/04/25 14:34:29;;;;;;;;;;;;;;;;;;4916679;29;20347;-56
2021/04/25 14:36:54;;;;;;;;;;;;;;;;;;4917768;29;19945;-57
2021/04/25 14:39:19;;;;;;;;;;;;;;;;;;4918101;29;20002;-56
2021/04/25 14:41:45;;;;;;;;;;;;;;;;;;4916236;29;20009;-56
2021/04/25 14:44:10;;;;;;;;;;;;;;;;;;4917384;29;20243;-56
2021/04/25 14:46:35;;;;;;;;;;;;;;;;;;4917475;29;20363;-56
2021/04/25 14:49:00;;;;;;;;;;;;;;;;;;4916230;29;19911;-56
2021/04/25 14:51:26;;;;;;;;;;;;;;;;;;4917489;29;20021;-55
2021/04/25 14:53:51;;;;;;;;;;;;;;;;;;4917605;29;19918;-57
2021/04/25 14:56:16;;;;;;;;;;;;;;;;;;4918235;29;19911;-55
2021/04/25 14:58:41;;;;;;;;;;;;;;;;;;4918125;29;20352;-57
2021/04/25 15:01:07;;;;;;;;;;;;;;;;;;4916363;29;20283;-57
2021/04/25 15:03:32;;;;;;;;;;;;;;;;;;4900373;29;19930;-57
2021/04/25 15:05:57;;;;;;;;;;;;;;;;;;4916453;29;19919;-58
2021/04/25 15:08:22;;;;;;;;;;;;;;;;;;4917698;29;19926;-56
2021/04/25 15:10:47;;;;;;;;;;;;;;;;;;4916265;29;19919;-57
2021/04/25 15:13:13;;;;;;;;;;;;;;;;;;4916463;29;19914;-56
2021/04/25 15:15:38;;;;;;;;;;;;;;;;;;4917555;29;19915;-56
2021/04/25 15:18:05;;;;;;;;;;;;;;;;;;4917482;29;19911;-55
2021/04/25 15:20:30;;;;;;;;;;;;;;;;;;4917563;29;19926;-55
2021/04/25 15:22:56;;;;;;;;;;;;;;;;;;4917618;29;19911;-55
2021/04/25 15:25:21;;;;;;;;;;;;;;;;;;4916173;29;19966;-54
2021/04/25 15:27:46;;;;;;;;;;;;;;;;;;4917280;29;19989;-57
2021/04/25 15:30:11;;;;;;;;;;;;;;;;;;4917791;29;20287;-56
2021/04/25 15:32:37;;;;;;;;;;;;;;;;;;4916831;29;19914;-56
2021/04/25 15:35:02;;;;;;;;;;;;;;;;;;4917134;29;19911;-56
2021/04/25 15:37:29;;;;;;;;;;;;;;;;;;4917473;29;19915;-55
2021/04/25 15:39:55;;;;;;;;;;;;;;;;;;4916752;29;19918;-58
2021/04/25 15:42:20;;;;;;;;;;;;;;;;;;4917451;29;20348;-57
2021/04/25 15:44:45;;;;;;;;;;;;;;;;;;4917114;29;20387;-56
2021/04/25 15:47:10;;;;;;;;;;;;;;;;;;4916951;29;19941;-56
2021/04/25 15:49:35;;;;;;;;;;;;;;;;;;4917224;29;19957;-56
2021/04/25 15:52:01;;;;;;;;;;;;;;;;;;4916989;29;19911;-56
2021/04/25 15:54:26;;;;;;;;;;;;;;;;;;4917066;29;20355;-56
2021/04/25 15:56:51;;;;;;;;;;;;;;;;;;4899463;29;20251;-56
2021/04/25 15:59:17;;;;;;;;;;;;;;;;;;4915649;29;19910;-55
2021/04/25 16:01:42;;;;;;;;;;;;;;;;;;4916670;29;19955;-56
2021/04/25 16:04:07;;;;;;;;;;;;;;;;;;4916599;29;19914;-54
2021/04/25 16:06:33;;;;;;;;;;;;;;;;;;4916657;29;20371;-55
2021/04/25 16:08:58;;;;;;;;;;;;;;;;;;4915190;29;19953;-55
2021/04/25 16:11:23;;;;;;;;;;;;;;;;;;4915515;29;19915;-55
2021/04/25 16:13:49;;;;;;;;;;;;;;;;;;4916656;29;20006;-56
2021/04/25 16:16:14;;;;;;;;;;;;;;;;;;4916726;29;20369;-54
2021/04/25 16:18:39;;;;;;;;;;;;;;;;;;4916285;29;20261;-55
2021/04/25 16:21:04;;;;;;;;;;;;;;;;;;4916274;29;19915;-56
2021/04/25 16:23:30;;;;;;;;;;;;;;;;;;4916822;29;19918;-54
2021/04/25 16:25:55;;;;;;;;;;;;;;;;;;4915222;29;20351;-54
2021/04/25 16:28:21;;;;;;;;;;;;;;;;;;4912382;29;19911;-55
2021/04/25 16:30:46;;;;;;;;;;;;;;;;;;4897631;29;19918;-55
2021/04/25 16:33:11;;;;;;;;;;;;;;;;;;4914236;29;19961;-55